Time;durP1;ratioP1;P1;durP2;ratioP2;P2;SDS_P1;SDS_P2;PMS_P1;PMS_P2;Temp;Humidity;BMP_temperature;BMP_pressure;BME280_temperature;BME280_humidity;BME280_pressure;Samples;Min_cycle;Max_cycle;Signal;HPM_P1;HPM_P2
2021/04/23 00:01:22;;;;;;;10.47;4.10;;;;;;;5.36;50.71;99737.22;5107879;28;39654;-74
2021/04/23 00:03:52;;;;;;;5.60;3.20;;;;;;;5.27;50.90;99740.09;5108953;27;41852;-74
2021/04/23 00:06:22;;;;;;;6.07;3.83;;;;;;;5.27;51.53;99739.25;5091168;28;42121;-73
2021/04/23 00:08:51;;;;;;;10.07;4.03;;;;;;;5.24;51.49;99742.81;5108326;27;43764;-74
2021/04/23 00:11:23;;;;;;;7.93;3.93;;;;;;;5.24;51.88;99740.19;5109484;27;40617;-74
2021/04/23 00:13:50;;;;;;;9.83;5.10;;;;;;;5.25;52.23;99741.03;5091012;28;40238;-74
2021/04/23 00:16:18;;;;;;;10.53;4.63;;;;;;;5.24;52.64;99744.56;5107698;27;42754;-73
2021/04/23 00:18:45;;;;;;;8.63;5.13;;;;;;;5.24;53.18;99739.31;5106577;28;41857;-73
2021/04/23 00:21:18;;;;;;;10.20;5.30;;;;;;;5.22;53.99;99730.63;5124770;27;39814;-75
2021/04/23 00:23:45;;;;;;;7.17;4.83;;;;;;;5.22;54.14;99733.25;5108681;27;42381;-74
2021/04/23 00:26:12;;;;;;;9.00;4.80;;;;;;;5.22;54.17;99741.13;5109281;27;42795;-75
2021/04/23 00:28:39;;;;;;;8.30;4.87;;;;;;;5.19;53.98;99739.47;5108714;27;42256;-73
2021/04/23 00:31:08;;;;;;;6.97;4.50;;;;;;;5.17;53.85;99741.25;5111598;27;40004;-74
2021/04/23 00:33:36;;;;;;;9.67;5.17;;;;;;;5.16;53.91;99736.91;5112436;27;42355;-74
2021/04/23 00:36:06;;;;;;;7.43;4.90;;;;;;;5.12;53.95;99750.16;5128440;27;41617;-74
2021/04/23 00:38:36;;;;;;;7.97;4.37;;;;;;;5.09;53.78;99740.56;5111964;27;42958;-74
2021/04/23 00:41:05;;;;;;;7.47;4.53;;;;;;;5.07;53.63;99744.16;5111953;27;39789;-74
2021/04/23 00:43:36;;;;;;;5.37;3.93;;;;;;;5.03;53.52;99746.00;5111845;27;42161;-73
2021/04/23 00:46:08;;;;;;;9.90;5.63;;;;;;;5.00;53.39;99738.19;5111220;28;42626;-73
2021/04/23 00:48:40;;;;;;;5.70;3.97;;;;;;;4.97;54.10;99740.91;5112045;27;42246;-73
2021/04/23 00:51:10;;;;;;;12.63;5.30;;;;;;;4.94;54.70;99741.00;5111745;27;40197;-74
2021/04/23 00:53:42;;;;;;;6.23;4.47;;;;;;;4.94;54.79;99751.50;5110089;28;41321;-75
2021/04/23 00:56:12;;;;;;;6.80;4.67;;;;;;;4.91;54.47;99751.56;5111044;28;41420;-74
2021/04/23 00:58:40;;;;;;;6.90;4.27;;;;;;;4.87;54.42;99749.91;5110918;28;41491;-75
2021/04/23 01:01:10;;;;;;;7.07;4.00;;;;;;;4.82;54.32;99746.56;5110778;28;40196;-75
2021/04/23 01:03:38;;;;;;;8.07;4.93;;;;;;;4.78;54.13;99744.91;5111883;27;41562;-74
2021/04/23 01:06:10;;;;;;;6.27;4.10;;;;;;;4.73;53.92;99750.25;5110483;28;41857;-73
2021/04/23 01:08:37;;;;;;;9.77;4.20;;;;;;;4.69;53.78;99756.50;5111020;28;41770;-75
2021/04/23 01:11:05;;;;;;;5.90;4.37;;;;;;;4.65;54.08;99758.31;5093345;28;39551;-73
2021/04/23 01:13:33;;;;;;;6.70;4.33;;;;;;;4.60;53.91;99754.94;5112431;27;42294;-74
2021/04/23 01:16:00;;;;;;;5.60;4.10;;;;;;;4.55;53.94;99754.19;5111139;27;42708;-72
2021/04/23 01:18:28;;;;;;;7.00;3.73;;;;;;;4.52;53.82;99761.25;5112109;27;41933;-73
2021/04/23 01:21:03;;;;;;;6.90;3.70;;;;;;;4.45;53.94;99763.16;5109636;28;40304;-74
2021/04/23 01:23:30;;;;;;;4.33;3.27;;;;;;;4.40;53.79;99764.19;5111143;27;42412;-74
2021/04/23 01:25:58;;;;;;;5.43;3.17;;;;;;;4.34;53.89;99757.31;5109854;28;42406;-74
2021/04/23 01:28:25;;;;;;;5.10;3.33;;;;;;;4.28;53.67;99752.22;5109668;28;42209;-74
2021/04/23 01:30:52;;;;;;;6.77;3.50;;;;;;;4.23;53.75;99756.69;5110858;27;40642;-73
2021/04/23 01:33:20;;;;;;;6.47;3.67;;;;;;;4.20;53.73;99764.63;5109059;28;41824;-73
2021/04/23 01:35:47;;;;;;;6.80;4.03;;;;;;;4.15;53.80;99763.88;5109895;27;43283;-73
2021/04/23 01:38:15;;;;;;;6.80;3.57;;;;;;;4.10;54.05;99771.81;5111804;27;42357;-75
2021/04/23 01:40:44;;;;;;;6.80;3.20;;;;;;;4.07;54.31;99760.56;5111363;27;39310;-74
2021/04/23 01:43:11;;;;;;;4.73;3.40;;;;;;;4.00;54.26;99764.19;5093367;28;40467;-74
2021/04/23 01:45:39;;;;;;;4.93;3.40;;;;;;;3.97;54.03;99765.97;5128353;27;42564;-73
2021/04/23 01:48:07;;;;;;;7.20;4.40;;;;;;;3.94;54.12;99773.06;5090895;28;41942;-73
2021/04/23 01:50:35;;;;;;;6.37;3.23;;;;;;;3.89;54.20;99772.28;5089363;28;40608;-74
2021/04/23 01:53:03;;;;;;;5.73;3.50;;;;;;;3.86;54.37;99767.09;5107523;28;43044;-74
2021/04/23 01:55:31;;;;;;;6.10;3.53;;;;;;;3.82;54.77;99770.69;5109428;28;42880;-73
2021/04/23 01:57:59;;;;;;;6.00;3.73;;;;;;;3.81;55.02;99775.06;5109650;28;42958;-75
2021/04/23 02:00:29;;;;;;;7.57;4.37;;;;;;;3.78;55.48;99775.13;5109863;28;39585;-74
2021/04/23 02:03:00;;;;;;;7.23;4.23;;;;;;;3.76;55.36;99776.91;5109001;28;42440;-74
2021/04/23 02:05:28;;;;;;;8.67;4.27;;;;;;;3.74;55.71;99756.88;5110047;28;43259;-74
2021/04/23 02:07:59;;;;;;;6.60;3.97;;;;;;;3.72;55.61;99770.00;5110245;27;41971;-73
2021/04/23 02:10:29;;;;;;;5.10;4.23;;;;;;;3.70;55.82;99765.72;5109989;28;39023;-73
2021/04/23 02:12:58;;;;;;;7.83;3.97;;;;;;;3.65;55.84;99767.53;5142622;27;42028;-73
2021/04/23 02:15:27;;;;;;;6.60;3.33;;;;;;;3.64;55.89;99774.53;5110556;27;42664;-74
2021/04/23 02:17:57;;;;;;;6.30;3.53;;;;;;;3.60;56.02;99775.47;5110369;27;42442;-73
2021/04/23 02:20:27;;;;;;;6.27;3.60;;;;;;;3.57;55.89;99775.56;5109736;28;41584;-74
2021/04/23 02:22:55;;;;;;;7.27;4.10;;;;;;;3.56;55.72;99781.69;5109414;27;41772;-73
2021/04/23 02:25:23;;;;;;;8.70;4.20;;;;;;;3.52;55.70;99780.00;5109183;28;43524;-73
2021/04/23 02:27:50;;;;;;;8.27;3.83;;;;;;;3.49;55.69;99782.69;5110083;27;42317;-73
2021/04/23 02:30:26;;;;;;;4.67;3.27;;;;;;;3.44;55.83;99787.16;5110583;27;39579;-74
2021/04/23 02:32:53;;;;;;;6.10;3.97;;;;;;;3.43;55.79;99788.06;5109155;28;41700;-74
2021/04/23 02:35:22;;;;;;;6.87;4.20;;;;;;;3.41;56.26;99784.59;5110227;27;42587;-73
2021/04/23 02:37:51;;;;;;;8.73;5.30;;;;;;;3.37;56.88;99778.53;5109724;27;41463;-73
2021/04/23 02:40:21;;;;;;;9.53;4.20;;;;;;;3.32;56.98;99763.84;5110611;27;40696;-74
2021/04/23 02:42:50;;;;;;;8.20;4.77;;;;;;;3.34;56.73;99783.00;5107882;28;41743;-74
2021/04/23 02:45:22;;;;;;;6.77;4.30;;;;;;;3.30;56.60;99781.31;5110378;27;42473;-74
2021/04/23 02:47:50;;;;;;;8.00;4.33;;;;;;;3.25;56.59;99787.50;5109796;27;42840;-73
2021/04/23 02:50:21;;;;;;;4.97;3.57;;;;;;;3.21;56.58;99788.44;5109574;28;40715;-74
2021/04/23 02:52:48;;;;;;;5.97;3.83;;;;;;;3.17;56.45;99791.16;5108399;27;41638;-73
2021/04/23 02:55:17;;;;;;;5.97;3.47;;;;;;;3.11;56.45;99791.25;5109475;28;42595;-72
2021/04/23 02:57:54;;;;;;;5.43;3.90;;;;;;;3.08;56.77;99789.56;5090985;28;41374;-73
2021/04/23 03:00:25;;;;;;;5.53;4.17;;;;;;;3.02;56.53;99792.28;5109277;28;39532;-73
2021/04/23 03:02:52;;;;;;;4.70;3.40;;;;;;;2.99;56.72;99789.69;5142424;27;41664;-73
2021/04/23 03:05:20;;;;;;;4.97;3.60;;;;;;;2.95;56.34;99790.66;5108563;28;42681;-73
2021/04/23 03:07:50;;;;;;;6.93;4.07;;;;;;;2.93;56.60;99796.81;5109946;27;43409;-73
2021/04/23 03:10:19;;;;;;;6.80;3.97;;;;;;;2.88;56.60;99795.13;5108839;28;40722;-73
2021/04/23 03:12:46;;;;;;;6.23;3.83;;;;;;;2.84;56.91;99798.66;5107583;28;42418;-73
2021/04/23 03:15:14;;;;;;;4.93;3.93;;;;;;;2.82;57.07;99802.22;5108427;28;42985;-73
2021/04/23 03:17:42;;;;;;;5.83;4.20;;;;;;;2.78;56.88;99803.13;5108260;28;42025;-73
2021/04/23 03:20:16;;;;;;;8.10;3.90;;;;;;;2.76;57.09;99799.69;5109595;27;39808;-72
2021/04/23 03:22:43;;;;;;;7.83;4.40;;;;;;;2.76;57.46;99802.28;5108815;27;41311;-73
2021/04/23 03:25:12;;;;;;;8.67;3.90;;;;;;;2.74;58.78;99793.59;5109143;27;42667;-73
2021/04/23 03:27:42;;;;;;;5.00;4.27;;;;;;;2.65;58.76;99785.91;5108619;27;41865;-72
2021/04/23 03:30:13;;;;;;;7.50;4.20;;;;;;;2.74;58.63;99791.00;5091545;28;38976;-74
2021/04/23 03:32:42;;;;;;;7.03;4.00;;;;;;;2.72;58.38;99793.63;5109353;27;42141;-75
2021/04/23 03:35:10;;;;;;;5.90;3.73;;;;;;;2.71;58.26;99801.53;5109867;27;42860;-74
2021/04/23 03:37:45;;;;;;;6.53;4.10;;;;;;;2.69;58.37;99798.94;5107497;28;42864;-73
2021/04/23 03:40:15;;;;;;;6.77;4.60;;;;;;;2.69;58.65;99805.91;5109269;28;39563;-75
2021/04/23 03:42:42;;;;;;;7.00;4.50;;;;;;;2.67;58.36;99808.53;5108899;27;42055;-74
2021/04/23 03:45:12;;;;;;;6.87;4.40;;;;;;;2.66;58.39;99814.66;5109552;27;43409;-74
2021/04/23 03:47:39;;;;;;;6.70;3.73;;;;;;;2.65;58.77;99812.06;5106564;28;42290;-74
2021/04/23 03:50:11;;;;;;;5.93;4.87;;;;;;;2.62;58.56;99812.97;5110476;27;39932;-74
2021/04/23 03:52:39;;;;;;;6.27;4.20;;;;;;;2.59;58.87;99809.56;5109255;27;41760;-74
2021/04/23 03:55:12;;;;;;;8.57;4.30;;;;;;;2.56;58.65;99815.69;5108741;28;43517;-75
2021/04/23 03:57:40;;;;;;;4.50;3.97;;;;;;;2.56;58.73;99818.31;5108436;28;42269;-74
2021/04/23 04:00:10;;;;;;;5.83;3.70;;;;;;;2.55;58.73;99815.72;5109176;28;40046;-75
2021/04/23 04:02:40;;;;;;;5.33;4.07;;;;;;;2.55;59.03;99823.56;5109536;27;41942;-74
2021/04/23 04:05:11;;;;;;;6.00;3.90;;;;;;;2.52;59.04;99820.09;5107731;28;41388;-74
2021/04/23 04:07:38;;;;;;;6.23;3.63;;;;;;;2.51;58.95;99826.19;5108497;27;42256;-74
2021/04/23 04:10:07;;;;;;;7.00;4.43;;;;;;;2.51;58.77;99830.56;5107183;28;39000;-74
2021/04/23 04:12:34;;;;;;;7.03;4.87;;;;;;;2.50;59.01;99829.69;5107188;28;42321;-73
2021/04/23 04:15:01;;;;;;;6.50;4.50;;;;;;;2.49;58.96;99843.66;5108481;27;42463;-73
2021/04/23 04:17:29;;;;;;;7.37;4.70;;;;;;;2.49;59.22;99843.66;5109174;27;42784;-74
2021/04/23 04:19:56;;;;;;;7.17;4.50;;;;;;;2.50;59.34;99850.63;5107139;28;38640;-73
2021/04/23 04:22:24;;;;;;;9.37;4.27;;;;;;;2.50;59.73;99848.00;5105996;28;41568;-73
2021/04/23 04:24:51;;;;;;;6.43;4.10;;;;;;;2.51;59.42;99851.47;5107273;28;41940;-73
2021/04/23 04:27:18;;;;;;;5.80;4.53;;;;;;;2.52;59.25;99859.31;5107440;28;42678;-74
2021/04/23 04:29:46;;;;;;;7.07;4.43;;;;;;;2.51;59.08;99854.97;5106703;28;39088;-73
2021/04/23 04:32:14;;;;;;;7.43;4.70;;;;;;;2.42;59.05;99847.25;5108819;27;42458;-74
2021/04/23 04:34:41;;;;;;;6.30;4.13;;;;;;;2.55;59.15;99870.63;5108255;27;43163;-74
2021/04/23 04:37:08;;;;;;;12.70;5.37;;;;;;;2.55;59.19;99868.00;5141966;27;42127;-73
2021/04/23 04:39:36;;;;;;;9.83;5.63;;;;;;;2.56;59.14;99877.56;5106946;28;40685;-72
2021/04/23 04:42:05;;;;;;;5.83;4.33;;;;;;;2.57;59.16;99876.69;5109032;27;42167;-74
2021/04/23 04:44:32;;;;;;;7.73;4.43;;;;;;;2.59;58.89;99880.16;5108340;27;43586;-74
2021/04/23 04:46:59;;;;;;;9.17;5.33;;;;;;;2.64;58.81;99894.88;5109043;27;43066;-73
2021/04/23 04:49:26;;;;;;;6.90;4.57;;;;;;;2.63;59.02;99881.81;5105103;28;40439;-74
2021/04/23 04:51:53;;;;;;;8.60;4.93;;;;;;;2.75;59.03;99886.88;5104991;28;41660;-74
2021/04/23 04:54:21;;;;;;;9.33;6.13;;;;;;;2.81;58.91;99886.81;5107224;28;42452;-73
2021/04/23 04:56:49;;;;;;;7.83;5.83;;;;;;;2.88;58.94;99888.44;5106654;28;42195;-74
2021/04/23 04:59:16;;;;;;;8.30;5.30;;;;;;;2.94;58.63;99893.59;5108603;27;40435;-73
2021/04/23 05:01:44;;;;;;;10.23;5.70;;;;;;;3.03;58.61;99896.06;5108018;27;41722;-74
2021/04/23 05:04:11;;;;;;;9.20;5.73;;;;;;;3.11;58.53;99901.16;5106504;28;42720;-74
2021/04/23 05:06:38;;;;;;;6.60;4.97;;;;;;;3.20;58.52;99901.91;5108629;27;42024;-73
2021/04/23 05:09:07;;;;;;;8.30;4.90;;;;;;;3.29;58.46;99905.25;5108631;27;39933;-74
2021/04/23 05:11:34;;;;;;;8.07;5.27;;;;;;;3.39;58.73;99907.69;5106543;28;41424;-74
2021/04/23 05:14:02;;;;;;;9.87;5.57;;;;;;;3.48;58.57;99912.75;5089532;28;41818;-73
2021/04/23 05:16:29;;;;;;;11.00;5.90;;;;;;;3.57;58.58;99910.00;5107238;27;42130;-73
2021/04/23 05:18:56;;;;;;;11.47;6.60;;;;;;;3.62;58.65;99909.91;5092987;28;38653;-74
2021/04/23 05:21:24;;;;;;;7.80;5.50;;;;;;;3.77;58.30;99925.34;5111247;27;42135;-72
2021/04/23 05:23:51;;;;;;;15.13;6.77;;;;;;;3.88;59.26;99923.41;5110411;27;42346;-73
2021/04/23 05:26:19;;;;;;;12.73;6.10;;;;;;;4.03;59.66;99917.00;5110046;28;41135;-74
2021/04/23 05:28:46;;;;;;;11.57;6.10;;;;;;;4.22;59.67;99920.13;5092620;28;39008;-73
2021/04/23 05:31:14;;;;;;;7.63;5.20;;;;;;;4.43;59.84;99918.84;5110066;28;41071;-73
2021/04/23 05:33:41;;;;;;;10.20;5.60;;;;;;;4.55;59.51;99924.72;5109215;28;42505;-74
2021/04/23 05:36:08;;;;;;;6.13;4.87;;;;;;;4.68;59.30;99922.69;5111433;27;42852;-74
2021/04/23 05:38:35;;;;;;;8.80;5.43;;;;;;;4.82;59.23;99925.00;5110540;27;39681;-73
2021/04/23 05:41:03;;;;;;;8.10;5.20;;;;;;;4.95;59.18;99926.44;5108010;28;42348;-73
2021/04/23 05:43:30;;;;;;;12.23;6.20;;;;;;;5.11;58.87;99929.59;5108569;28;42504;-74
2021/04/23 05:45:57;;;;;;;12.47;6.50;;;;;;;5.30;58.79;99944.88;5111589;27;42599;-74
2021/04/23 05:48:26;;;;;;;10.30;6.70;;;;;;;5.51;58.78;99940.88;5111033;27;39544;-74
2021/04/23 05:50:53;;;;;;;14.67;6.43;;;;;;;5.71;58.52;99945.63;5109044;28;41622;-74
2021/04/23 05:53:21;;;;;;;11.50;5.83;;;;;;;5.87;58.13;99952.22;5093130;28;41728;-73
2021/04/23 05:55:48;;;;;;;8.80;5.40;;;;;;;6.01;57.69;99952.75;5092246;28;41181;-74
2021/04/23 05:58:15;;;;;;;9.67;6.27;;;;;;;6.19;58.18;99950.50;5102481;28;40646;-74
2021/04/23 06:00:43;;;;;;;9.03;5.87;;;;;;;6.35;57.87;99959.72;5109476;27;41716;-74
2021/04/23 06:03:11;;;;;;;10.17;6.17;;;;;;;6.50;57.19;99977.72;5109397;27;43480;-76
2021/04/23 06:05:40;;;;;;;10.03;6.27;;;;;;;6.74;56.77;99968.25;5110561;27;42380;-74
2021/04/23 06:08:10;;;;;;;8.70;5.20;;;;;;;6.97;56.10;99973.69;5105410;27;39907;-74
2021/04/23 06:10:38;;;;;;;9.33;5.80;;;;;;;7.23;55.67;99978.19;5110157;27;42154;-75
2021/04/23 06:13:05;;;;;;;12.30;5.83;;;;;;;7.57;54.75;99980.59;5108511;28;42953;-74
2021/04/23 06:15:32;;;;;;;9.13;5.77;;;;;;;7.89;53.81;99984.84;5110254;27;42659;-74
2021/04/23 06:17:59;;;;;;;8.33;4.87;;;;;;;8.02;53.87;99988.78;5107598;28;39654;-75
2021/04/23 06:20:28;;;;;;;8.93;5.00;;;;;;;8.01;53.97;99968.59;5108712;28;40740;-74
2021/04/23 06:22:57;;;;;;;9.73;5.87;;;;;;;8.23;53.67;99982.75;5107092;28;42706;-75
2021/04/23 06:25:26;;;;;;;10.93;6.17;;;;;;;8.45;53.76;99989.94;5107825;27;42646;-74
2021/04/23 06:27:53;;;;;;;11.97;6.23;;;;;;;8.64;53.02;99998.94;5109071;27;40102;-74
2021/04/23 06:30:23;;;;;;;9.83;5.50;;;;;;;8.79;52.46;99993.06;5109610;27;41198;-74
2021/04/23 06:32:50;;;;;;;10.03;5.50;;;;;;;9.01;51.63;99995.78;5108435;27;43511;-75
2021/04/23 06:35:19;;;;;;;9.60;5.77;;;;;;;9.51;51.02;100001.75;5108581;28;42166;-74
2021/04/23 06:37:48;;;;;;;11.53;5.40;;;;;;;10.00;49.75;100013.00;5108854;27;40888;-76
2021/04/23 06:40:17;;;;;;;11.33;5.80;;;;;;;10.14;49.18;99997.34;5109635;27;42801;-74
2021/04/23 06:42:44;;;;;;;11.97;6.00;;;;;;;10.13;49.16;100008.91;5107617;28;41859;-72
2021/04/23 06:45:15;;;;;;;9.97;5.07;;;;;;;10.13;49.25;100011.56;5107366;28;43221;-73
2021/04/23 06:47:42;;;;;;;14.17;5.40;;;;;;;10.12;49.96;100007.19;5105471;27;40074;-74
2021/04/23 06:50:12;;;;;;;8.93;5.00;;;;;;;10.08;49.61;100009.09;5107631;27;41724;-73
2021/04/23 06:52:41;;;;;;;9.17;5.67;;;;;;;10.21;49.18;100014.75;5105642;28;43443;-74
2021/04/23 06:55:10;;;;;;;11.33;6.00;;;;;;;10.33;48.68;100006.28;5108949;27;42738;-74
2021/04/23 06:57:38;;;;;;;7.83;5.30;;;;;;;10.64;47.94;100013.75;5107756;27;40755;-76
2021/04/23 07:00:08;;;;;;;8.10;4.93;;;;;;;10.90;47.18;100030.25;5106025;28;41606;-74
2021/04/23 07:02:35;;;;;;;10.33;5.20;;;;;;;10.92;46.89;100037.22;5107646;27;43422;-73
2021/04/23 07:05:03;;;;;;;8.93;5.03;;;;;;;10.93;46.56;100025.69;5107299;27;41276;-74
2021/04/23 07:07:31;;;;;;;10.63;5.13;;;;;;;11.14;46.55;100034.44;5105354;28;39713;-75
2021/04/23 07:09:58;;;;;;;6.50;4.60;;;;;;;11.29;46.29;100032.88;5105719;28;41215;-74
2021/04/23 07:12:25;;;;;;;9.87;5.57;;;;;;;11.63;45.96;100011.78;5090579;28;43195;-72
2021/04/23 07:14:53;;;;;;;8.57;5.10;;;;;;;12.43;43.99;100040.56;5109653;27;42139;-74
2021/04/23 07:17:20;;;;;;;12.50;6.70;;;;;;;13.55;41.58;100049.66;5087428;28;39136;-75
2021/04/23 07:19:48;;;;;;;9.03;5.00;;;;;;;14.71;39.94;100065.94;5106099;28;42352;-74
2021/04/23 07:22:15;;;;;;;8.13;5.20;;;;;;;15.57;38.35;100082.91;5106917;28;42734;-74
2021/04/23 07:24:43;;;;;;;12.07;5.80;;;;;;;15.92;37.66;100072.63;5108631;27;42898;-74
2021/04/23 07:27:10;;;;;;;8.60;5.20;;;;;;;16.00;37.60;100072.97;5107198;28;38971;-74
2021/04/23 07:29:38;;;;;;;8.53;5.77;;;;;;;15.84;37.17;100079.41;5106509;28;42456;-75
2021/04/23 07:32:07;;;;;;;9.87;5.20;;;;;;;15.84;37.45;100066.91;5108294;27;42852;-76
2021/04/23 07:34:35;;;;;;;9.97;5.17;;;;;;;16.56;36.83;100072.84;5108675;27;42860;-74
2021/04/23 07:37:03;;;;;;;9.47;5.57;;;;;;;17.53;35.08;100077.59;5108842;27;40390;-75
2021/04/23 07:39:30;;;;;;;11.83;5.97;;;;;;;18.62;33.88;100082.03;5106065;27;42022;-76
2021/04/23 07:41:58;;;;;;;16.07;11.93;;;;;;;19.67;31.51;100099.78;5106729;28;43726;-75
2021/04/23 07:44:27;;;;;;;8.97;6.23;;;;;;;20.89;29.93;100098.59;5106676;28;42993;-74
2021/04/23 07:46:54;;;;;;;11.17;5.80;;;;;;;21.36;28.85;100110.66;5108601;27;39532;-74
2021/04/23 07:49:22;;;;;;;8.70;5.73;;;;;;;21.05;28.05;100109.72;5106968;28;41445;-75
2021/04/23 07:51:49;;;;;;;9.70;5.83;;;;;;;21.36;28.61;100099.03;5106267;28;43177;-75
2021/04/23 07:54:17;;;;;;;7.73;4.90;;;;;;;22.56;27.56;100099.81;5108631;27;43108;-75
2021/04/23 07:56:44;;;;;;;9.83;5.03;;;;;;;23.95;26.05;100113.59;5107928;27;39939;-75
2021/04/23 07:59:11;;;;;;;8.33;4.90;;;;;;;24.94;24.98;100111.78;5089496;28;42041;-74
2021/04/23 08:01:38;;;;;;;10.23;5.23;;;;;;;25.14;24.44;100102.44;5095653;28;41831;-77
2021/04/23 08:04:06;;;;;;;9.43;5.03;;;;;;;25.65;23.37;100125.16;5102237;27;41740;-75
2021/04/23 08:06:34;;;;;;;11.17;5.53;;;;;;;26.45;22.44;100119.22;5106827;28;40589;-77
2021/04/23 08:09:01;;;;;;;8.33;5.20;;;;;;;26.75;22.06;100123.16;5095481;27;41697;-75
2021/04/23 08:11:28;;;;;;;8.90;5.53;;;;;;;27.05;21.66;100109.94;5106740;28;42623;-76
2021/04/23 08:13:55;;;;;;;10.73;5.10;;;;;;;26.79;21.82;100121.81;5105828;28;42902;-77
2021/04/23 08:16:22;;;;;;;11.60;5.57;;;;;;;26.23;22.04;100121.66;5107233;28;40039;-77
2021/04/23 08:18:53;;;;;;;10.43;5.93;;;;;;;25.84;22.38;100119.47;5096649;27;41726;-75
2021/04/23 08:21:20;;;;;;;7.67;5.57;;;;;;;26.35;22.18;100113.06;5107007;28;42622;-77
2021/04/23 08:23:48;;;;;;;9.53;5.17;;;;;;;27.10;22.02;100113.81;5089417;28;41183;-76
2021/04/23 08:26:16;;;;;;;9.87;5.83;;;;;;;27.65;18.96;100144.91;5086015;28;40054;-74
2021/04/23 08:28:44;;;;;;;8.40;5.63;;;;;;;27.71;19.03;100139.59;5087168;28;41431;-74
2021/04/23 08:31:11;;;;;;;7.83;5.77;;;;;;;28.06;18.72;100143.75;5087892;28;42649;-75
2021/04/23 08:33:39;;;;;;;11.03;5.53;;;;;;;28.11;18.30;100146.75;5116867;27;41821;-74
2021/04/23 08:36:06;;;;;;;9.10;5.60;;;;;;;28.15;19.06;100139.94;5084433;28;39828;-78
2021/04/23 08:38:33;;;;;;;8.50;5.03;;;;;;;28.49;19.33;100134.16;5092495;28;41409;-74
2021/04/23 08:41:02;;;;;;;9.70;4.40;;;;;;;29.25;18.40;100141.44;5105504;27;42945;-73
2021/04/23 08:43:30;;;;;;;6.73;4.60;;;;;;;29.97;17.52;100140.88;5105286;27;42071;-75
2021/04/23 08:45:57;;;;;;;8.67;4.80;;;;;;;30.76;16.49;100139.13;5105352;27;39852;-72
2021/04/23 08:48:24;;;;;;;6.40;5.13;;;;;;;31.53;16.18;100136.44;5082473;28;41285;-76
2021/04/23 08:50:52;;;;;;;6.50;5.17;;;;;;;32.14;16.41;100142.09;5103812;27;42390;-75
2021/04/23 08:53:20;;;;;;;5.90;4.67;;;;;;;32.94;14.73;100146.81;5111691;27;42787;-75
2021/04/23 08:55:47;;;;;;;7.40;4.57;;;;;;;33.68;14.57;100152.09;5109333;28;40117;-72
2021/04/23 08:58:15;;;;;;;9.17;5.23;;;;;;;33.89;14.32;100151.84;5109883;28;42065;-75
2021/04/23 09:00:43;;;;;;;9.30;5.03;;;;;;;33.23;14.60;100148.31;5109496;28;43776;-75
2021/04/23 09:03:12;;;;;;;8.60;4.80;;;;;;;32.34;15.62;100129.34;5111561;27;41744;-75
2021/04/23 09:05:39;;;;;;;7.23;5.37;;;;;;;31.77;16.14;100133.25;5110242;28;39322;-73
2021/04/23 09:08:08;;;;;;;8.47;4.90;;;;;;;31.34;16.26;100131.66;5110186;27;41434;-74
2021/04/23 09:10:38;;;;;;;8.63;5.30;;;;;;;30.99;16.03;100134.31;5093239;28;42266;-73
2021/04/23 09:13:12;;;;;;;8.10;4.43;;;;;;;30.56;16.01;100121.66;5108690;28;41986;-74
2021/04/23 09:15:43;;;;;;;6.43;4.50;;;;;;;30.26;16.53;100116.25;5109271;28;39612;-75
2021/04/23 09:18:12;;;;;;;5.77;4.37;;;;;;;30.06;16.86;100115.16;5110270;27;42199;-74
2021/04/23 09:20:45;;;;;;;6.20;4.80;;;;;;;30.55;15.73;100130.88;5093886;28;41734;-74
2021/04/23 09:23:15;;;;;;;5.50;3.67;;;;;;;31.13;15.40;100118.03;5111552;27;42331;-74
2021/04/23 09:25:47;;;;;;;7.00;5.00;;;;;;;32.15;14.71;100134.72;5111203;27;38997;-72
2021/04/23 09:28:16;;;;;;;23.20;18.30;;;;;;;33.15;14.55;100138.34;5110051;28;41805;-73
2021/04/23 09:30:44;;;;;;;15.90;13.27;;;;;;;33.96;12.99;100135.34;5110106;28;43123;-74
2021/04/23 09:33:25;;;;;;;8.83;5.00;;;;;;;34.15;13.55;100133.56;5110822;27;42792;-75
2021/04/23 09:35:53;;;;;;;7.30;4.80;;;;;;;34.69;13.35;100137.78;5110269;27;39840;-74
2021/04/23 09:38:20;;;;;;;8.83;4.40;;;;;;;34.62;13.10;100134.25;5109566;28;41608;-73
2021/04/23 09:40:48;;;;;;;5.70;4.17;;;;;;;34.44;13.13;100132.22;5109524;28;43280;-72
2021/04/23 09:43:15;;;;;;;5.07;3.80;;;;;;;34.33;13.26;100130.16;5111232;27;42869;-75
2021/04/23 09:45:51;;;;;;;6.10;4.10;;;;;;;34.11;13.50;100119.44;5111057;27;39955;-76
2021/04/23 09:48:22;;;;;;;5.93;4.10;;;;;;;34.25;12.99;100122.94;5092951;28;40632;-75
2021/04/23 09:50:51;;;;;;;7.17;4.30;;;;;;;34.43;12.79;100123.13;5111035;27;42686;-75
2021/04/23 09:53:29;;;;;;;7.47;4.53;;;;;;;34.96;12.19;100128.31;5110481;28;42292;-76
2021/04/23 09:55:57;;;;;;;5.33;4.37;;;;;;;35.71;12.18;100129.13;5109528;28;40048;-76
2021/04/23 09:58:25;;;;;;;8.13;4.10;;;;;;;36.03;11.37;100115.22;5110900;27;41399;-76
2021/04/23 10:00:58;;;;;;;6.90;4.00;;;;;;;36.00;11.70;100133.91;5110495;27;43458;-76
2021/04/23 10:03:33;;;;;;;8.27;3.93;;;;;;;34.76;12.48;100111.91;5108416;27;42451;-74
2021/04/23 10:06:22;;;;;;;7.40;3.30;;;;;;;33.86;12.84;100121.22;5109133;28;40665;-75
2021/04/23 10:08:49;;;;;;;5.57;3.77;;;;;;;33.85;12.15;100123.13;5092215;28;40817;-74
2021/04/23 10:11:17;;;;;;;7.87;4.97;;;;;;;34.14;12.26;100126.38;5110821;27;42565;-74
2021/04/23 10:13:44;;;;;;;5.10;3.77;;;;;;;34.53;12.16;100117.97;5109033;28;41882;-75
2021/04/23 10:16:15;;;;;;;4.40;3.87;;;;;;;34.09;12.07;100112.47;5111137;27;39809;-75
2021/04/23 10:18:42;;;;;;;5.27;2.80;;;;;;;33.81;13.18;100105.38;5109574;27;41381;-77
2021/04/23 10:21:09;;;;;;;6.80;4.30;;;;;;;33.86;13.60;100105.56;5092774;28;43189;-76
2021/04/23 10:23:36;;;;;;;4.53;3.67;;;;;;;34.52;12.80;100094.28;5109396;28;42211;-76
2021/04/23 10:26:04;;;;;;;6.38;3.72;;;;;;;35.54;12.35;100094.97;5108838;28;40017;-75
2021/04/23 10:28:31;;;;;;;6.35;3.63;;;;;;;36.32;10.84;100114.47;5108204;28;41712;-73
2021/04/23 10:30:59;;;;;;;5.03;3.42;;;;;;;37.47;10.95;100120.50;5109576;28;42685;-76
2021/04/23 10:33:29;;;;;;;6.15;4.05;;;;;;;38.65;10.21;100117.31;5109062;28;42016;-75
2021/04/23 10:35:58;;;;;;;3.83;3.38;;;;;;;39.38;9.83;100113.56;5107785;28;40047;-75
2021/04/23 10:38:28;;;;;;;9.27;6.20;;;;;;;39.80;9.03;100118.66;5109551;27;42449;-76
2021/04/23 10:40:58;;;;;;;6.88;3.63;;;;;;;39.98;9.24;100118.38;5108242;28;42933;-75
2021/04/23 10:43:25;;;;;;;5.13;4.00;;;;;;;39.96;9.55;100115.00;5109700;27;43282;-75
2021/04/23 10:46:04;;;;;;;6.03;3.92;;;;;;;38.92;10.14;100102.81;5110073;27;39619;-76
2021/04/23 10:48:34;;;;;;;6.22;4.75;;;;;;;38.59;9.66;100103.59;5110003;27;42594;-75
2021/04/23 10:51:05;;;;;;;5.45;3.30;;;;;;;38.25;10.90;100069.44;5107718;28;42613;-75
2021/04/23 10:53:42;;;;;;;7.28;4.28;;;;;;;37.94;10.13;100102.00;5110507;27;42255;-76
2021/04/23 10:56:19;;;;;;;6.05;3.88;;;;;;;37.95;10.61;100087.09;5111088;27;40311;-76
2021/04/23 10:58:48;;;;;;;6.55;3.63;;;;;;;37.97;10.50;100087.66;5108804;28;40821;-76
2021/04/23 11:01:24;;;;;;;5.03;3.40;;;;;;;37.95;10.64;100092.63;5105136;27;42718;-74
2021/04/23 11:04:03;;;;;;;5.63;3.40;;;;;;;38.07;9.56;100104.50;5124610;27;41483;-73
2021/04/23 11:06:32;;;;;;;3.70;3.00;;;;;;;37.93;9.09;100103.06;5108406;27;40255;-74
2021/04/23 11:09:22;;;;;;;3.73;2.57;;;;;;;37.39;9.40;100091.31;5106948;27;41487;-74
2021/04/23 11:12:13;;;;;;;5.07;2.60;;;;;;;37.21;10.93;100080.41;5086617;28;42115;-74
2021/04/23 11:14:42;;;;;;;3.67;2.60;;;;;;;37.58;10.30;100074.63;5085235;28;42578;-73
2021/04/23 11:17:32;;;;;;;3.67;3.03;;;;;;;38.08;10.50;100067.44;5102965;28;40925;-76
2021/04/23 11:20:23;;;;;;;5.20;3.40;;;;;;;38.66;10.48;100071.91;5103394;28;44089;-74
2021/04/23 11:22:56;;;;;;;6.13;2.90;;;;;;;38.18;10.50;100075.13;5104587;28;42884;-74
2021/04/23 11:25:25;;;;;;;4.90;3.13;;;;;;;37.02;10.15;100056.69;5108608;27;42854;-75
2021/04/23 11:28:09;;;;;;;4.60;3.63;;;;;;;35.18;10.99;100068.16;5089766;28;39066;-74
2021/04/23 11:31:07;;;;;;;5.00;3.13;;;;;;;34.76;11.96;100053.28;5101964;28;41019;-74
2021/04/23 11:33:52;;;;;;;5.10;3.20;;;;;;;35.60;11.87;100055.47;5102722;28;42345;-74
2021/04/23 11:36:26;;;;;;;4.90;3.20;;;;;;;36.29;11.64;100055.06;5106621;27;42685;-73
2021/04/23 11:38:55;;;;;;;6.13;3.50;;;;;;;36.98;11.63;100047.19;5105056;27;40681;-75
2021/04/23 11:41:22;;;;;;;8.97;3.83;;;;;;;37.13;10.30;100053.09;5105928;28;41565;-74
2021/04/23 11:43:49;;;;;;;6.10;3.53;;;;;;;37.21;9.98;100055.53;5105352;27;42610;-73